sensor_id;sensor_type;location;lat;lon;timestamp;temperature;humidity
16999;DHT22;10211;49.476;11.010;2023-07-02T00:01:19;17.80;99.90
16999;DHT22;10211;49.476;11.010;2023-07-02T00:03:46;17.80;99.90
16999;DHT22;10211;49.476;11.010;2023-07-02T00:06:12;17.80;99.90
16999;DHT22;10211;49.476;11.010;2023-07-02T00:08:39;17.80;99.90
16999;DHT22;10211;49.476;11.010;2023-07-02T00:11:06;17.80;99.90
16999;DHT22;10211;49.476;11.010;2023-07-02T00:13:37;17.80;99.90
16999;DHT22;10211;49.476;11.010;2023-07-02T00:16:04;17.80;99.90
16999;DHT22;10211;49.476;11.010;2023-07-02T00:18:32;17.70;99.90
16999;DHT22;10211;49.476;11.010;2023-07-02T00:21:00;17.70;99.90
16999;DHT22;10211;49.476;11.010;2023-07-02T00:23:28;17.60;99.90
16999;DHT22;10211;49.476;11.010;2023-07-02T00:25:54;17.50;99.90
16999;DHT22;10211;49.476;11.010;2023-07-02T00:28:21;17.50;99.90
16999;DHT22;10211;49.476;11.010;2023-07-02T00:30:48;17.40;99.90
16999;DHT22;10211;49.476;11.010;2023-07-02T00:33:15;17.40;99.90
16999;DHT22;10211;49.476;11.010;2023-07-02T00:35:43;17.30;99.90
16999;DHT22;10211;49.476;11.010;2023-07-02T00:38:10;17.30;99.90
16999;DHT22;10211;49.476;11.010;2023-07-02T00:40:36;17.30;99.90
16999;DHT22;10211;49.476;11.010;2023-07-02T00:43:03;17.40;99.90
16999;DHT22;10211;49.476;11.010;2023-07-02T00:45:30;17.40;99.90
16999;DHT22;10211;49.476;11.010;2023-07-02T00:47:57;17.50;99.90
16999;DHT22;10211;49.476;11.010;2023-07-02T00:50:25;17.50;99.90
16999;DHT22;10211;49.476;11.010;2023-07-02T00:52:54;17.60;99.90
16999;DHT22;10211;49.476;11.010;2023-07-02T00:55:21;17.60;99.90
16999;DHT22;10211;49.476;11.010;2023-07-02T00:57:48;17.60;99.90
16999;DHT22;10211;49.476;11.010;2023-07-02T01:00:16;17.70;99.90
16999;DHT22;10211;49.476;11.010;2023-07-02T01:02:43;17.70;99.90
16999;DHT22;10211;49.476;11.010;2023-07-02T01:05:14;17.70;99.90
16999;DHT22;10211;49.476;11.010;2023-07-02T01:07:41;17.70;99.90
16999;DHT22;10211;49.476;11.010;2023-07-02T01:10:09;17.70;99.90
16999;DHT22;10211;49.476;11.010;2023-07-02T01:12:36;17.70;99.90
16999;DHT22;10211;49.476;11.010;2023-07-02T01:15:05;17.80;99.90
16999;DHT22;10211;49.476;11.010;2023-07-02T01:17:33;17.70;99.90
16999;DHT22;10211;49.476;11.010;2023-07-02T01:20:08;17.70;99.90
16999;DHT22;10211;49.476;11.010;2023-07-02T01:22:36;17.70;99.90
16999;DHT22;10211;49.476;11.010;2023-07-02T01:25:03;17.80;99.90
16999;DHT22;10211;49.476;11.010;2023-07-02T01:27:31;17.80;99.90
16999;DHT22;10211;49.476;11.010;2023-07-02T01:30:00;17.80;99.90
16999;DHT22;10211;49.476;11.010;2023-07-02T01:32:27;17.80;99.90
16999;DHT22;10211;49.476;11.010;2023-07-02T01:34:54;17.80;99.90
16999;DHT22;10211;49.476;11.010;2023-07-02T01:37:22;17.80;99.90
16999;DHT22;10211;49.476;11.010;2023-07-02T01:39:49;17.80;99.90
16999;DHT22;10211;49.476;11.010;2023-07-02T01:42:17;17.80;99.90
16999;DHT22;10211;49.476;11.010;2023-07-02T01:44:45;17.80;99.90
16999;DHT22;10211;49.476;11.010;2023-07-02T01:47:12;17.80;99.90
16999;DHT22;10211;49.476;11.010;2023-07-02T01:49:39;17.80;99.90
16999;DHT22;10211;49.476;11.010;2023-07-02T01:52:06;17.80;99.90
16999;DHT22;10211;49.476;11.010;2023-07-02T01:54:35;17.80;99.90
16999;DHT22;10211;49.476;11.010;2023-07-02T01:57:02;17.80;99.90
16999;DHT22;10211;49.476;11.010;2023-07-02T01:59:29;17.70;99.90
16999;DHT22;10211;49.476;11.010;2023-07-02T02:01:56;17.80;99.90
16999;DHT22;10211;49.476;11.010;2023-07-02T02:04:22;17.70;99.90
16999;DHT22;10211;49.476;11.010;2023-07-02T02:06:49;17.80;99.90
16999;DHT22;10211;49.476;11.010;2023-07-02T02:09:17;17.70;99.90
16999;DHT22;10211;49.476;11.010;2023-07-02T02:11:48;17.70;99.90
16999;DHT22;10211;49.476;11.010;2023-07-02T02:14:15;17.60;99.90
16999;DHT22;10211;49.476;11.010;2023-07-02T02:16:43;17.60;99.90
16999;DHT22;10211;49.476;11.010;2023-07-02T02:19:12;17.60;99.90
16999;DHT22;10211;49.476;11.010;2023-07-02T02:21:40;17.60;99.90
16999;DHT22;10211;49.476;11.010;2023-07-02T02:24:07;17.60;99.90
16999;DHT22;10211;49.476;11.010;2023-07-02T02:26:33;17.50;99.90
16999;DHT22;10211;49.476;11.010;2023-07-02T02:29:02;17.50;99.90
16999;DHT22;10211;49.476;11.010;2023-07-02T02:31:28;17.40;99.90
16999;DHT22;10211;49.476;11.010;2023-07-02T02:33:56;17.30;99.90
16999;DHT22;10211;49.476;11.010;2023-07-02T02:36:22;17.20;99.90
16999;DHT22;10211;49.476;11.010;2023-07-02T02:38:49;17.10;99.90
16999;DHT22;10211;49.476;11.010;2023-07-02T02:41:16;17.00;99.90
16999;DHT22;10211;49.476;11.010;2023-07-02T02:43:43;17.00;99.90
16999;DHT22;10211;49.476;11.010;2023-07-02T02:46:11;16.90;99.90
16999;DHT22;10211;49.476;11.010;2023-07-02T02:48:38;16.80;99.90
16999;DHT22;10211;49.476;11.010;2023-07-02T02:51:05;16.70;99.90
16999;DHT22;10211;49.476;11.010;2023-07-02T02:53:31;16.70;99.90
16999;DHT22;10211;49.476;11.010;2023-07-02T02:55:58;16.60;99.90
16999;DHT22;10211;49.476;11.010;2023-07-02T02:58:24;16.60;99.90
16999;DHT22;10211;49.476;11.010;2023-07-02T03:00:53;16.50;99.90
16999;DHT22;10211;49.476;11.010;2023-07-02T03:03:21;16.50;99.90
16999;DHT22;10211;49.476;11.010;2023-07-02T03:05:49;16.50;99.90
16999;DHT22;10211;49.476;11.010;2023-07-02T03:08:16;16.50;99.90
16999;DHT22;10211;49.476;11.010;2023-07-02T03:10:43;16.60;99.90
16999;DHT22;10211;49.476;11.010;2023-07-02T03:13:09;16.50;99.90
16999;DHT22;10211;49.476;11.010;2023-07-02T03:15:36;16.60;99.90
16999;DHT22;10211;49.476;11.010;2023-07-02T03:18:03;16.60;99.90
16999;DHT22;10211;49.476;11.010;2023-07-02T03:20:31;16.60;99.90
16999;DHT22;10211;49.476;11.010;2023-07-02T03:22:57;16.60;99.90
16999;DHT22;10211;49.476;11.010;2023-07-02T03:25:24;16.60;99.90
16999;DHT22;10211;49.476;11.010;2023-07-02T03:27:51;16.60;99.90
16999;DHT22;10211;49.476;11.010;2023-07-02T03:30:17;16.50;99.90
16999;DHT22;10211;49.476;11.010;2023-07-02T03:32:44;16.50;99.90
16999;DHT22;10211;49.476;11.010;2023-07-02T03:35:11;16.50;99.90
16999;DHT22;10211;49.476;11.010;2023-07-02T03:37:39;16.50;99.90
16999;DHT22;10211;49.476;11.010;2023-07-02T03:40:08;16.50;99.90
16999;DHT22;10211;49.476;11.010;2023-07-02T03:42:34;16.60;99.90
16999;DHT22;10211;49.476;11.010;2023-07-02T03:45:01;16.60;99.90
16999;DHT22;10211;49.476;11.010;2023-07-02T03:47:28;16.60;99.90
16999;DHT22;10211;49.476;11.010;2023-07-02T03:49:55;16.70;99.90
16999;DHT22;10211;49.476;11.010;2023-07-02T03:52:22;16.70;99.90
16999;DHT22;10211;49.476;11.010;2023-07-02T03:54:50;16.70;99.90
16999;DHT22;10211;49.476;11.010;2023-07-02T03:57:16;16.70;99.90
16999;DHT22;10211;49.476;11.010;2023-07-02T03:59:43;16.70;99.90
16999;DHT22;10211;49.476;11.010;2023-07-02T04:02:10;16.70;99.90
16999;DHT22;10211;49.476;11.010;2023-07-02T04:04:36;16.80;99.90
16999;DHT22;10211;49.476;11.010;2023-07-02T04:07:03;16.80;99.90
16999;DHT22;10211;49.476;11.010;2023-07-02T04:09:30;16.80;99.90
16999;DHT22;10211;49.476;11.010;2023-07-02T04:11:59;16.80;99.90
16999;DHT22;10211;49.476;11.010;2023-07-02T04:14:26;16.80;99.90
16999;DHT22;10211;49.476;11.010;2023-07-02T04:16:53;16.80;99.90
16999;DHT22;10211;49.476;11.010;2023-07-02T04:19:19;16.80;99.90
16999;DHT22;10211;49.476;11.010;2023-07-02T04:21:46;16.80;99.90
16999;DHT22;10211;49.476;11.010;2023-07-02T04:24:13;16.80;99.90
16999;DHT22;10211;49.476;11.010;2023-07-02T04:26:39;16.80;99.90
16999;DHT22;10211;49.476;11.010;2023-07-02T04:29:09;16.80;99.90
16999;DHT22;10211;49.476;11.010;2023-07-02T04:31:36;16.90;99.90
16999;DHT22;10211;49.476;11.010;2023-07-02T04:34:03;16.90;99.90
16999;DHT22;10211;49.476;11.010;2023-07-02T04:36:31;17.00;99.90
16999;DHT22;10211;49.476;11.010;2023-07-02T04:38:58;17.00;99.90
16999;DHT22;10211;49.476;11.010;2023-07-02T04:41:25;17.00;99.90
16999;DHT22;10211;49.476;11.010;2023-07-02T04:43:52;17.10;99.90
16999;DHT22;10211;49.476;11.010;2023-07-02T04:46:20;17.20;99.90
16999;DHT22;10211;49.476;11.010;2023-07-02T04:48:46;17.20;99.90
16999;DHT22;10211;49.476;11.010;2023-07-02T04:51:13;17.30;99.90
16999;DHT22;10211;49.476;11.010;2023-07-02T04:53:40;17.30;99.90
16999;DHT22;10211;49.476;11.010;2023-07-02T04:56:07;17.30;99.90
16999;DHT22;10211;49.476;11.010;2023-07-02T04:58:33;17.30;99.90
16999;DHT22;10211;49.476;11.010;2023-07-02T05:01:00;17.30;99.90
16999;DHT22;10211;49.476;11.010;2023-07-02T05:03:28;17.40;99.90
16999;DHT22;10211;49.476;11.010;2023-07-02T05:05:55;17.40;99.90
16999;DHT22;10211;49.476;11.010;2023-07-02T05:08:21;17.50;99.90
16999;DHT22;10211;49.476;11.010;2023-07-02T05:10:48;17.50;99.90
16999;DHT22;10211;49.476;11.010;2023-07-02T05:13:15;17.50;99.90
16999;DHT22;10211;49.476;11.010;2023-07-02T05:15:42;17.50;99.90
16999;DHT22;10211;49.476;11.010;2023-07-02T05:18:08;17.70;99.90
16999;DHT22;10211;49.476;11.010;2023-07-02T05:20:36;17.60;99.90
16999;DHT22;10211;49.476;11.010;2023-07-02T05:23:03;17.60;99.90
16999;DHT22;10211;49.476;11.010;2023-07-02T05:25:29;17.80;99.90
16999;DHT22;10211;49.476;11.010;2023-07-02T05:27:58;17.80;99.90
16999;DHT22;10211;49.476;11.010;2023-07-02T05:30:45;17.90;99.90
16999;DHT22;10211;49.476;11.010;2023-07-02T05:33:12;18.00;99.90
16999;DHT22;10211;49.476;11.010;2023-07-02T05:35:40;18.10;99.90
16999;DHT22;10211;49.476;11.010;2023-07-02T05:38:06;18.10;99.90
16999;DHT22;10211;49.476;11.010;2023-07-02T05:40:33;18.10;99.90
16999;DHT22;10211;49.476;11.010;2023-07-02T05:43:00;18.20;99.90
16999;DHT22;10211;49.476;11.010;2023-07-02T05:45:27;18.30;99.90
16999;DHT22;10211;49.476;11.010;2023-07-02T05:47:54;18.40;99.90
16999;DHT22;10211;49.476;11.010;2023-07-02T05:50:21;18.40;99.90
16999;DHT22;10211;49.476;11.010;2023-07-02T05:52:49;18.40;99.90
16999;DHT22;10211;49.476;11.010;2023-07-02T05:55:15;18.40;99.90
16999;DHT22;10211;49.476;11.010;2023-07-02T05:57:42;18.40;99.90
16999;DHT22;10211;49.476;11.010;2023-07-02T06:00:10;18.40;99.90
16999;DHT22;10211;49.476;11.010;2023-07-02T06:02:36;18.50;99.90
16999;DHT22;10211;49.476;11.010;2023-07-02T06:05:04;18.60;99.90
16999;DHT22;10211;49.476;11.010;2023-07-02T06:07:31;18.60;99.90
16999;DHT22;10211;49.476;11.010;2023-07-02T06:10:01;18.60;99.90
16999;DHT22;10211;49.476;11.010;2023-07-02T06:12:29;18.80;99.90
16999;DHT22;10211;49.476;11.010;2023-07-02T06:14:55;19.00;99.90
16999;DHT22;10211;49.476;11.010;2023-07-02T06:17:22;19.40;99.90
16999;DHT22;10211;49.476;11.010;2023-07-02T06:19:50;20.50;99.90
16999;DHT22;10211;49.476;11.010;2023-07-02T06:22:17;21.70;99.90
16999;DHT22;10211;49.476;11.010;2023-07-02T06:24:43;22.00;96.50
16999;DHT22;10211;49.476;11.010;2023-07-02T06:27:11;21.50;97.00
16999;DHT22;10211;49.476;11.010;2023-07-02T06:29:38;21.10;97.00
16999;DHT22;10211;49.476;11.010;2023-07-02T06:32:05;20.70;97.60
16999;DHT22;10211;49.476;11.010;2023-07-02T06:34:32;20.30;98.80
16999;DHT22;10211;49.476;11.010;2023-07-02T06:36:59;19.90;98.70
16999;DHT22;10211;49.476;11.010;2023-07-02T06:39:25;19.60;99.20
16999;DHT22;10211;49.476;11.010;2023-07-02T06:41:52;19.40;98.60
16999;DHT22;10211;49.476;11.010;2023-07-02T06:44:20;19.20;98.50
16999;DHT22;10211;49.476;11.010;2023-07-02T06:46:46;19.00;98.90
16999;DHT22;10211;49.476;11.010;2023-07-02T06:49:13;19.00;99.20
16999;DHT22;10211;49.476;11.010;2023-07-02T06:51:40;18.80;98.60
16999;DHT22;10211;49.476;11.010;2023-07-02T06:54:07;18.80;98.30
16999;DHT22;10211;49.476;11.010;2023-07-02T06:56:33;18.90;98.00
16999;DHT22;10211;49.476;11.010;2023-07-02T06:59:00;18.90;97.90
16999;DHT22;10211;49.476;11.010;2023-07-02T07:01:28;19.00;97.90
16999;DHT22;10211;49.476;11.010;2023-07-02T07:03:55;19.20;97.30
16999;DHT22;10211;49.476;11.010;2023-07-02T07:06:22;19.40;97.30
16999;DHT22;10211;49.476;11.010;2023-07-02T07:08:48;19.70;97.00
16999;DHT22;10211;49.476;11.010;2023-07-02T07:11:15;19.70;96.20
16999;DHT22;10211;49.476;11.010;2023-07-02T07:13:41;19.90;95.40
16999;DHT22;10211;49.476;11.010;2023-07-02T07:16:09;19.90;94.90
16999;DHT22;10211;49.476;11.010;2023-07-02T07:18:37;19.90;95.10
16999;DHT22;10211;49.476;11.010;2023-07-02T07:21:03;19.70;95.20
16999;DHT22;10211;49.476;11.010;2023-07-02T07:23:30;19.70;95.20
16999;DHT22;10211;49.476;11.010;2023-07-02T07:25:57;19.70;95.30
16999;DHT22;10211;49.476;11.010;2023-07-02T07:28:23;19.80;95.60
16999;DHT22;10211;49.476;11.010;2023-07-02T07:30:50;19.90;95.10
16999;DHT22;10211;49.476;11.010;2023-07-02T07:33:17;20.00;95.40
16999;DHT22;10211;49.476;11.010;2023-07-02T07:35:45;20.00;95.30
16999;DHT22;10211;49.476;11.010;2023-07-02T07:38:13;19.80;94.70
16999;DHT22;10211;49.476;11.010;2023-07-02T07:40:40;19.70;94.50
16999;DHT22;10211;49.476;11.010;2023-07-02T07:43:06;19.60;94.20
16999;DHT22;10211;49.476;11.010;2023-07-02T07:45:33;19.60;94.70
16999;DHT22;10211;49.476;11.010;2023-07-02T07:48:00;19.70;94.80
16999;DHT22;10211;49.476;11.010;2023-07-02T07:50:26;19.90;94.20
16999;DHT22;10211;49.476;11.010;2023-07-02T07:52:54;19.80;93.50
16999;DHT22;10211;49.476;11.010;2023-07-02T07:55:21;19.80;93.30
16999;DHT22;10211;49.476;11.010;2023-07-02T07:57:48;19.90;93.50
16999;DHT22;10211;49.476;11.010;2023-07-02T08:00:15;20.00;92.60
16999;DHT22;10211;49.476;11.010;2023-07-02T08:02:42;20.10;92.40
16999;DHT22;10211;49.476;11.010;2023-07-02T08:05:09;20.20;92.60
16999;DHT22;10211;49.476;11.010;2023-07-02T08:07:36;20.50;92.70
16999;DHT22;10211;49.476;11.010;2023-07-02T08:10:04;20.60;92.30
16999;DHT22;10211;49.476;11.010;2023-07-02T08:12:33;20.80;92.00
16999;DHT22;10211;49.476;11.010;2023-07-02T08:15:00;20.80;91.70
16999;DHT22;10211;49.476;11.010;2023-07-02T08:17:26;20.50;92.00
16999;DHT22;10211;49.476;11.010;2023-07-02T08:19:53;20.40;92.20
16999;DHT22;10211;49.476;11.010;2023-07-02T08:22:20;20.50;91.50
16999;DHT22;10211;49.476;11.010;2023-07-02T08:24:46;20.70;91.70
16999;DHT22;10211;49.476;11.010;2023-07-02T08:27:16;21.00;91.80
16999;DHT22;10211;49.476;11.010;2023-07-02T08:29:45;21.30;90.40
16999;DHT22;10211;49.476;11.010;2023-07-02T08:32:11;21.20;90.50
16999;DHT22;10211;49.476;11.010;2023-07-02T08:34:38;21.10;90.70
16999;DHT22;10211;49.476;11.010;2023-07-02T08:37:05;21.10;90.70
16999;DHT22;10211;49.476;11.010;2023-07-02T08:39:32;21.20;90.30
16999;DHT22;10211;49.476;11.010;2023-07-02T08:41:58;21.20;90.50
16999;DHT22;10211;49.476;11.010;2023-07-02T08:44:26;21.30;90.20
16999;DHT22;10211;49.476;11.010;2023-07-02T08:46:53;21.30;90.30
16999;DHT22;10211;49.476;11.010;2023-07-02T08:49:22;21.50;90.10
16999;DHT22;10211;49.476;11.010;2023-07-02T08:51:48;21.30;89.80
16999;DHT22;10211;49.476;11.010;2023-07-02T08:54:17;21.20;90.00
16999;DHT22;10211;49.476;11.010;2023-07-02T08:56:44;21.20;90.10
16999;DHT22;10211;49.476;11.010;2023-07-02T08:59:11;21.30;90.50
16999;DHT22;10211;49.476;11.010;2023-07-02T09:01:50;21.30;89.40
16999;DHT22;10211;49.476;11.010;2023-07-02T09:04:18;21.30;89.30
16999;DHT22;10211;49.476;11.010;2023-07-02T09:06:45;21.50;89.20
16999;DHT22;10211;49.476;11.010;2023-07-02T09:09:12;21.70;88.50
16999;DHT22;10211;49.476;11.010;2023-07-02T09:11:48;21.90;87.50
16999;DHT22;10211;49.476;11.010;2023-07-02T09:14:26;22.10;87.50
16999;DHT22;10211;49.476;11.010;2023-07-02T09:17:05;22.40;87.80
16999;DHT22;10211;49.476;11.010;2023-07-02T09:19:34;22.60;86.10
16999;DHT22;10211;49.476;11.010;2023-07-02T09:22:01;22.30;85.20
16999;DHT22;10211;49.476;11.010;2023-07-02T09:24:29;22.20;86.30
16999;DHT22;10211;49.476;11.010;2023-07-02T09:26:58;22.30;85.00
16999;DHT22;10211;49.476;11.010;2023-07-02T09:29:26;22.80;85.50
16999;DHT22;10211;49.476;11.010;2023-07-02T09:31:54;23.30;82.80
16999;DHT22;10211;49.476;11.010;2023-07-02T09:34:28;23.00;83.10
16999;DHT22;10211;49.476;11.010;2023-07-02T09:36:55;22.70;83.60
16999;DHT22;10211;49.476;11.010;2023-07-02T09:39:26;22.40;84.10
16999;DHT22;10211;49.476;11.010;2023-07-02T09:41:53;22.80;83.40
16999;DHT22;10211;49.476;11.010;2023-07-02T09:44:21;23.00;81.30
16999;DHT22;10211;49.476;11.010;2023-07-02T09:46:52;23.00;82.20
16999;DHT22;10211;49.476;11.010;2023-07-02T09:49:20;23.60;81.80
16999;DHT22;10211;49.476;11.010;2023-07-02T09:51:50;24.00;78.20
16999;DHT22;10211;49.476;11.010;2023-07-02T09:54:17;24.00;75.70
16999;DHT22;10211;49.476;11.010;2023-07-02T09:56:46;23.80;76.80
16999;DHT22;10211;49.476;11.010;2023-07-02T09:59:13;23.80;77.10
16999;DHT22;10211;49.476;11.010;2023-07-02T10:01:40;25.40;75.30
16999;DHT22;10211;49.476;11.010;2023-07-02T10:04:13;28.20;69.90
16999;DHT22;10211;49.476;11.010;2023-07-02T10:06:47;30.70;64.00
16999;DHT22;10211;49.476;11.010;2023-07-02T10:09:15;31.10;60.00
16999;DHT22;10211;49.476;11.010;2023-07-02T10:11:42;29.80;60.20
16999;DHT22;10211;49.476;11.010;2023-07-02T10:14:09;28.20;61.60
16999;DHT22;10211;49.476;11.010;2023-07-02T10:16:49;27.00;63.90
16999;DHT22;10211;49.476;11.010;2023-07-02T10:19:15;26.80;64.40
16999;DHT22;10211;49.476;11.010;2023-07-02T10:21:42;27.90;62.90
16999;DHT22;10211;49.476;11.010;2023-07-02T10:24:12;28.10;61.50
16999;DHT22;10211;49.476;11.010;2023-07-02T10:26:51;27.20;62.50
16999;DHT22;10211;49.476;11.010;2023-07-02T10:29:19;25.90;65.60
16999;DHT22;10211;49.476;11.010;2023-07-02T10:31:48;25.10;67.90
16999;DHT22;10211;49.476;11.010;2023-07-02T10:34:15;24.30;67.30
16999;DHT22;10211;49.476;11.010;2023-07-02T10:36:41;25.10;66.20
16999;DHT22;10211;49.476;11.010;2023-07-02T10:39:08;25.00;65.60
16999;DHT22;10211;49.476;11.010;2023-07-02T10:41:35;24.70;67.00
16999;DHT22;10211;49.476;11.010;2023-07-02T10:44:07;24.50;68.30
16999;DHT22;10211;49.476;11.010;2023-07-02T10:46:34;24.20;67.90
16999;DHT22;10211;49.476;11.010;2023-07-02T10:49:01;23.80;68.10
16999;DHT22;10211;49.476;11.010;2023-07-02T10:51:28;23.50;68.50
16999;DHT22;10211;49.476;11.010;2023-07-02T10:53:58;23.40;69.70
16999;DHT22;10211;49.476;11.010;2023-07-02T10:56:25;23.20;70.30
16999;DHT22;10211;49.476;11.010;2023-07-02T10:58:53;23.90;70.80
16999;DHT22;10211;49.476;11.010;2023-07-02T11:01:25;24.40;68.90
16999;DHT22;10211;49.476;11.010;2023-07-02T11:03:56;24.30;67.30
16999;DHT22;10211;49.476;11.010;2023-07-02T11:06:23;23.90;67.20
16999;DHT22;10211;49.476;11.010;2023-07-02T11:08:50;23.60;67.30
16999;DHT22;10211;49.476;11.010;2023-07-02T11:11:17;23.50;67.10
16999;DHT22;10211;49.476;11.010;2023-07-02T11:13:45;23.30;68.30
16999;DHT22;10211;49.476;11.010;2023-07-02T11:16:25;23.30;69.00
16999;DHT22;10211;49.476;11.010;2023-07-02T11:18:53;24.00;68.50
16999;DHT22;10211;49.476;11.010;2023-07-02T11:21:20;24.70;66.50
16999;DHT22;10211;49.476;11.010;2023-07-02T11:23:47;24.70;65.30
16999;DHT22;10211;49.476;11.010;2023-07-02T11:26:13;24.70;65.80
16999;DHT22;10211;49.476;11.010;2023-07-02T11:28:50;26.50;61.80
16999;DHT22;10211;49.476;11.010;2023-07-02T11:31:28;27.30;59.50
16999;DHT22;10211;49.476;11.010;2023-07-02T11:33:55;26.60;59.20
16999;DHT22;10211;49.476;11.010;2023-07-02T11:36:23;26.60;59.70
16999;DHT22;10211;49.476;11.010;2023-07-02T11:38:50;27.40;58.40
16999;DHT22;10211;49.476;11.010;2023-07-02T11:41:18;27.90;56.70
16999;DHT22;10211;49.476;11.010;2023-07-02T11:43:45;28.20;54.80
16999;DHT22;10211;49.476;11.010;2023-07-02T11:46:13;29.30;54.50
16999;DHT22;10211;49.476;11.010;2023-07-02T11:48:41;31.20;51.30
16999;DHT22;10211;49.476;11.010;2023-07-02T11:51:08;32.40;48.30
16999;DHT22;10211;49.476;11.010;2023-07-02T11:53:34;33.10;46.50
16999;DHT22;10211;49.476;11.010;2023-07-02T11:56:01;33.40;47.10
16999;DHT22;10211;49.476;11.010;2023-07-02T11:58:28;33.70;46.80
16999;DHT22;10211;49.476;11.010;2023-07-02T12:00:55;34.40;45.70
16999;DHT22;10211;49.476;11.010;2023-07-02T12:03:21;34.60;45.00
16999;DHT22;10211;49.476;11.010;2023-07-02T12:05:49;34.00;44.70
16999;DHT22;10211;49.476;11.010;2023-07-02T12:08:16;33.90;44.70
16999;DHT22;10211;49.476;11.010;2023-07-02T12:10:43;34.00;45.50
16999;DHT22;10211;49.476;11.010;2023-07-02T12:13:10;34.50;45.00
16999;DHT22;10211;49.476;11.010;2023-07-02T12:15:37;34.20;44.80
16999;DHT22;10211;49.476;11.010;2023-07-02T12:18:03;34.20;45.40
16999;DHT22;10211;49.476;11.010;2023-07-02T12:20:30;34.60;45.40
16999;DHT22;10211;49.476;11.010;2023-07-02T12:22:59;34.30;44.50
16999;DHT22;10211;49.476;11.010;2023-07-02T12:25:26;33.90;45.30
16999;DHT22;10211;49.476;11.010;2023-07-02T12:27:53;33.50;45.30
16999;DHT22;10211;49.476;11.010;2023-07-02T12:30:19;33.60;44.60
16999;DHT22;10211;49.476;11.010;2023-07-02T12:32:46;33.30;44.50
16999;DHT22;10211;49.476;11.010;2023-07-02T12:35:13;32.90;45.90
16999;DHT22;10211;49.476;11.010;2023-07-02T12:37:44;32.70;46.20
16999;DHT22;10211;49.476;11.010;2023-07-02T12:40:13;30.80;46.40
16999;DHT22;10211;49.476;11.010;2023-07-02T12:42:41;29.80;48.50
16999;DHT22;10211;49.476;11.010;2023-07-02T12:45:08;30.00;49.10
16999;DHT22;10211;49.476;11.010;2023-07-02T12:47:35;29.90;48.80
16999;DHT22;10211;49.476;11.010;2023-07-02T12:50:02;29.90;49.20
16999;DHT22;10211;49.476;11.010;2023-07-02T12:52:29;30.40;48.10
16999;DHT22;10211;49.476;11.010;2023-07-02T12:54:56;30.30;48.00
16999;DHT22;10211;49.476;11.010;2023-07-02T12:57:24;30.30;49.00
16999;DHT22;10211;49.476;11.010;2023-07-02T12:59:51;30.50;49.30
16999;DHT22;10211;49.476;11.010;2023-07-02T13:02:18;30.30;49.50
16999;DHT22;10211;49.476;11.010;2023-07-02T13:04:45;29.80;48.60
16999;DHT22;10211;49.476;11.010;2023-07-02T13:07:11;28.70;49.90
16999;DHT22;10211;49.476;11.010;2023-07-02T13:09:38;27.90;51.80
16999;DHT22;10211;49.476;11.010;2023-07-02T13:12:05;27.50;53.10
16999;DHT22;10211;49.476;11.010;2023-07-02T13:14:33;27.40;53.40
16999;DHT22;10211;49.476;11.010;2023-07-02T13:17:00;27.10;52.10
16999;DHT22;10211;49.476;11.010;2023-07-02T13:19:28;26.60;54.10
16999;DHT22;10211;49.476;11.010;2023-07-02T13:21:55;26.60;53.90
16999;DHT22;10211;49.476;11.010;2023-07-02T13:24:22;26.70;53.90
16999;DHT22;10211;49.476;11.010;2023-07-02T13:26:48;26.60;53.40
16999;DHT22;10211;49.476;11.010;2023-07-02T13:29:15;26.50;53.80
16999;DHT22;10211;49.476;11.010;2023-07-02T13:31:44;26.50;54.30
16999;DHT22;10211;49.476;11.010;2023-07-02T13:34:10;26.40;54.00
16999;DHT22;10211;49.476;11.010;2023-07-02T13:36:37;26.30;55.10
16999;DHT22;10211;49.476;11.010;2023-07-02T13:39:04;26.20;55.20
16999;DHT22;10211;49.476;11.010;2023-07-02T13:41:30;26.20;55.10
16999;DHT22;10211;49.476;11.010;2023-07-02T13:43:57;25.90;55.20
16999;DHT22;10211;49.476;11.010;2023-07-02T13:46:23;25.80;55.70
16999;DHT22;10211;49.476;11.010;2023-07-02T13:48:51;25.50;56.10
16999;DHT22;10211;49.476;11.010;2023-07-02T13:51:18;25.30;56.30
16999;DHT22;10211;49.476;11.010;2023-07-02T13:53:45;25.30;56.90
16999;DHT22;10211;49.476;11.010;2023-07-02T13:56:11;25.60;56.90
16999;DHT22;10211;49.476;11.010;2023-07-02T13:59:03;25.90;57.60
16999;DHT22;10211;49.476;11.010;2023-07-02T14:01:30;26.00;55.40
16999;DHT22;10211;49.476;11.010;2023-07-02T14:03:58;26.00;55.70
16999;DHT22;10211;49.476;11.010;2023-07-02T14:06:25;26.30;55.70
16999;DHT22;10211;49.476;11.010;2023-07-02T14:08:51;26.30;55.80
16999;DHT22;10211;49.476;11.010;2023-07-02T14:11:19;26.50;56.70
16999;DHT22;10211;49.476;11.010;2023-07-02T14:13:46;26.10;56.60
16999;DHT22;10211;49.476;11.010;2023-07-02T14:16:14;26.20;57.30
16999;DHT22;10211;49.476;11.010;2023-07-02T14:18:41;26.30;56.70
16999;DHT22;10211;49.476;11.010;2023-07-02T14:21:08;26.30;55.40
16999;DHT22;10211;49.476;11.010;2023-07-02T14:23:34;26.50;56.10
16999;DHT22;10211;49.476;11.010;2023-07-02T14:26:01;26.80;55.60
16999;DHT22;10211;49.476;11.010;2023-07-02T14:28:28;27.00;55.00
16999;DHT22;10211;49.476;11.010;2023-07-02T14:30:59;26.80;54.70
16999;DHT22;10211;49.476;11.010;2023-07-02T14:33:28;26.60;54.60
16999;DHT22;10211;49.476;11.010;2023-07-02T14:35:55;26.50;54.90
16999;DHT22;10211;49.476;11.010;2023-07-02T14:38:22;26.60;54.50
16999;DHT22;10211;49.476;11.010;2023-07-02T14:40:50;26.80;53.60
16999;DHT22;10211;49.476;11.010;2023-07-02T14:43:17;26.70;53.70
16999;DHT22;10211;49.476;11.010;2023-07-02T14:45:47;26.70;54.10
16999;DHT22;10211;49.476;11.010;2023-07-02T14:48:14;26.30;54.40
16999;DHT22;10211;49.476;11.010;2023-07-02T14:50:49;25.90;55.30
16999;DHT22;10211;49.476;11.010;2023-07-02T14:53:16;25.80;55.90
16999;DHT22;10211;49.476;11.010;2023-07-02T14:55:43;26.20;55.50
16999;DHT22;10211;49.476;11.010;2023-07-02T14:58:10;26.20;55.10
16999;DHT22;10211;49.476;11.010;2023-07-02T15:00:42;26.40;55.50
16999;DHT22;10211;49.476;11.010;2023-07-02T15:03:09;26.30;55.70
16999;DHT22;10211;49.476;11.010;2023-07-02T15:05:36;26.10;55.70
16999;DHT22;10211;49.476;11.010;2023-07-02T15:08:04;26.10;56.00
16999;DHT22;10211;49.476;11.010;2023-07-02T15:10:31;25.90;55.70
16999;DHT22;10211;49.476;11.010;2023-07-02T15:12:57;25.80;56.90
16999;DHT22;10211;49.476;11.010;2023-07-02T15:15:24;25.70;55.80
16999;DHT22;10211;49.476;11.010;2023-07-02T15:17:51;25.60;56.50